Time;durP1;ratioP1;P1;durP2;ratioP2;P2;SDS_P1;SDS_P2;PMS_P1;PMS_P2;Temp;Humidity;BMP_temperature;BMP_pressure;BME280_temperature;BME280_humidity;BME280_pressure;Samples;Min_cycle;Max_cycle;Signal;HPM_P1;HPM_P2
2021/12/22 00:01:42;;;;;;;360.05;132.75;;;;;;;-13.29;62.73;95015.97;1721676;83;21068;-52
2021/12/22 00:04:08;;;;;;;364.98;128.75;;;;;;;-13.41;62.80;95025.46;1731080;81;21047;-53
2021/12/22 00:06:36;;;;;;;307.67;115.35;;;;;;;-13.52;62.99;95027.50;1740387;82;21140;-54
2021/12/22 00:09:05;;;;;;;292.52;110.05;;;;;;;-13.65;63.34;95029.56;1740394;82;20995;-53
2021/12/22 00:11:34;;;;;;;300.15;106.30;;;;;;;-13.65;63.71;95026.92;1715879;82;20943;-53
2021/12/22 00:14:00;;;;;;;277.30;102.27;;;;;;;-13.68;63.58;95033.31;1740639;82;21482;-53
2021/12/22 00:16:28;;;;;;;282.92;103.53;;;;;;;-13.72;63.79;95031.01;1728231;81;21098;-54
2021/12/22 00:18:55;;;;;;;310.85;111.47;;;;;;;-13.71;63.79;95038.66;1720681;83;21151;-54
2021/12/22 00:21:22;;;;;;;311.00;112.45;;;;;;;-13.63;63.93;95035.34;1687897;83;21016;-53
2021/12/22 00:23:49;;;;;;;335.00;118.65;;;;;;;-13.49;63.95;95036.72;1716228;83;21071;-54
2021/12/22 00:26:16;;;;;;;333.35;121.42;;;;;;;-13.34;63.56;95038.55;1716405;83;22199;-54
2021/12/22 00:28:45;;;;;;;377.38;139.07;;;;;;;-13.18;63.46;95043.82;1740636;82;20973;-53
2021/12/22 00:31:14;;;;;;;369.73;137.72;;;;;;;-12.99;63.27;95050.34;1752257;82;21196;-54
2021/12/22 00:33:48;;;;;;;342.80;125.07;;;;;;;-12.83;62.88;95060.34;1752319;81;21057;-54
2021/12/22 00:36:17;;;;;;;296.52;107.07;;;;;;;-12.77;62.55;95068.94;1752439;82;20962;-53
2021/12/22 00:38:45;;;;;;;300.20;106.92;;;;;;;-12.79;62.50;95064.48;1752255;82;21183;-59
2021/12/22 00:41:12;;;;;;;281.47;103.38;;;;;;;-12.83;62.39;95068.28;1722045;81;21491;-54
2021/12/22 00:43:39;;;;;;;261.73;97.55;;;;;;;-12.91;62.22;95064.97;1716319;83;21130;-54
2021/12/22 00:46:12;;;;;;;242.18;89.80;;;;;;;-12.97;62.34;95063.54;1716380;83;20972;-53
2021/12/22 00:48:40;;;;;;;247.20;91.90;;;;;;;-13.02;62.10;95062.32;1718856;82;21036;-54
2021/12/22 00:51:07;;;;;;;240.28;85.15;;;;;;;-13.20;61.86;95068.47;1721009;83;20957;-53
2021/12/22 00:53:34;;;;;;;217.00;85.92;;;;;;;-13.37;62.01;95074.85;1692653;83;20983;-53
2021/12/22 00:56:02;;;;;;;190.22;66.72;;;;;;;-13.58;61.97;95077.59;1721084;83;21144;-53
2021/12/22 00:58:31;;;;;;;248.00;91.55;;;;;;;-13.70;62.15;95076.44;1720928;83;21006;-55
2021/12/22 01:00:57;;;;;;;229.05;88.47;;;;;;;-13.87;62.05;95076.73;1691388;83;21031;-54
2021/12/22 01:03:24;;;;;;;248.57;95.85;;;;;;;-14.06;62.40;95078.59;1720877;83;21015;-55
2021/12/22 01:05:51;;;;;;;226.80;88.95;;;;;;;-14.06;63.08;95081.24;1722426;83;21180;-53
2021/12/22 01:08:21;;;;;;;230.75;90.03;;;;;;;-14.03;63.01;95085.43;1722628;83;22333;-53
2021/12/22 01:10:48;;;;;;;229.18;89.07;;;;;;;-13.96;63.13;95086.36;1722709;83;21005;-53
2021/12/22 01:13:14;;;;;;;215.45;81.28;;;;;;;-13.87;63.50;95089.39;1722573;83;21450;-53
2021/12/22 01:15:41;;;;;;;227.70;92.50;;;;;;;-13.67;63.34;95085.91;1723323;82;21061;-54
2021/12/22 01:18:17;;;;;;;241.25;90.85;;;;;;;-13.51;63.05;95085.92;1734983;82;21415;-56
2021/12/22 01:23:20;;;;;;;242.77;87.67;;;;;;;-13.14;62.95;95087.14;1723146;82;21034;-52
2021/12/22 01:25:48;;;;;;;253.92;94.97;;;;;;;-13.08;62.17;95092.58;1730103;83;21015;-54
2021/12/22 01:28:17;;;;;;;252.55;94.92;;;;;;;-13.08;61.75;95081.99;1727107;82;21071;-51
2021/12/22 01:30:46;;;;;;;256.85;97.75;;;;;;;-13.02;61.57;95085.34;1720031;83;21012;-54
2021/12/22 01:33:14;;;;;;;328.00;120.42;;;;;;;-12.92;61.60;95085.91;1720130;83;21148;-55
2021/12/22 01:35:40;;;;;;;281.50;107.85;;;;;;;-12.79;61.34;95085.14;1720195;83;21063;-53
2021/12/22 01:38:08;;;;;;;263.62;99.45;;;;;;;-12.76;60.87;95088.52;1720242;83;21035;-53
2021/12/22 01:40:39;;;;;;;281.77;101.78;;;;;;;-12.95;60.55;95083.88;1698272;83;20971;-54
2021/12/22 01:43:08;;;;;;;353.95;119.33;;;;;;;-13.10;60.53;95092.09;1714696;82;20963;-54
2021/12/22 01:51:08;;;;;;;311.87;105.25;;;;;;;-13.11;60.34;95093.72;1713473;83;21013;-53
2021/12/22 01:53:41;;;;;;;306.63;105.45;;;;;;;-13.09;60.29;95085.72;1718351;82;21476;-54
2021/12/22 01:56:23;;;;;;;283.25;97.90;;;;;;;-13.05;60.07;95087.25;1676010;83;21035;-55
2021/12/22 01:58:54;;;;;;;274.58;103.25;;;;;;;-13.03;60.06;95086.42;1720303;83;21424;-54
2021/12/22 02:01:21;;;;;;;256.52;99.60;;;;;;;-12.92;59.97;95083.26;1720336;83;21008;-53
2021/12/22 02:03:49;;;;;;;256.05;98.42;;;;;;;-12.88;59.77;95084.23;1720092;83;20980;-54
2021/12/22 02:06:16;;;;;;;263.85;96.05;;;;;;;-12.88;60.04;95089.53;1747829;82;21045;-52
2021/12/22 02:08:46;;;;;;;270.73;99.05;;;;;;;-12.84;60.12;95085.24;1749952;82;21545;-54
2021/12/22 02:11:15;;;;;;;278.73;100.70;;;;;;;-12.77;59.71;95079.53;1749670;82;21147;-54
2021/12/22 02:13:46;;;;;;;267.30;100.97;;;;;;;-12.81;59.12;95088.62;1749807;82;21477;-54
2021/12/22 02:16:15;;;;;;;263.87;97.60;;;;;;;-12.89;59.07;95079.25;1748530;82;21037;-54
2021/12/22 02:18:50;;;;;;;258.75;97.82;;;;;;;-12.87;59.10;95085.80;1749657;82;21057;-53
2021/12/22 02:21:18;;;;;;;245.93;95.57;;;;;;;-12.84;58.86;95087.89;1749796;81;21026;-53
2021/12/22 02:23:47;;;;;;;259.87;101.97;;;;;;;-12.82;58.53;95081.77;1721470;82;20954;-53
2021/12/22 02:26:21;;;;;;;260.02;93.50;;;;;;;-12.85;58.48;95086.84;1750078;82;20939;-54
2021/12/22 02:28:48;;;;;;;269.57;98.92;;;;;;;-12.84;58.74;95091.86;1748304;82;21413;-53
2021/12/22 02:31:17;;;;;;;307.77;108.22;;;;;;;-12.88;58.57;95095.38;1749432;82;21053;-54
2021/12/22 02:33:45;;;;;;;298.15;110.42;;;;;;;-13.10;58.52;95104.00;1749793;82;21010;-54
2021/12/22 02:36:22;;;;;;;280.27;103.32;;;;;;;-13.26;58.67;95097.95;1750191;82;21832;-53
2021/12/22 02:38:42;;;;;;;266.40;97.20;;;;;;;-13.35;59.07;95097.83;1747771;82;21061;-55
2021/12/22 02:41:12;;;;;;;272.82;97.75;;;;;;;-13.42;59.27;95105.33;1742490;82;21093;-53
2021/12/22 02:43:51;;;;;;;268.90;98.30;;;;;;;-13.53;59.28;95102.63;1729638;82;21073;-54
2021/12/22 02:46:15;;;;;;;225.93;86.78;;;;;;;-13.62;59.63;95099.59;1729394;82;21006;-54
2021/12/22 02:48:42;;;;;;;229.03;87.02;;;;;;;-13.66;60.14;95102.02;1717924;82;21490;-53
2021/12/22 02:51:08;;;;;;;211.52;82.20;;;;;;;-13.59;60.08;95098.46;1744617;82;21026;-55
2021/12/22 02:53:46;;;;;;;205.77;74.55;;;;;;;-13.65;59.74;95103.59;1727226;82;21421;-53
2021/12/22 03:01:40;;;;;;;226.42;84.40;;;;;;;-13.80;60.19;95097.77;1688309;84;21176;-54
2021/12/22 03:04:02;;;;;;;215.47;81.73;;;;;;;-13.75;59.94;95095.59;1706486;83;21001;-53
2021/12/22 03:08:54;;;;;;;211.35;76.90;;;;;;;-13.82;59.52;95096.47;1685554;83;21452;-54
2021/12/22 03:11:21;;;;;;;183.93;66.55;;;;;;;-13.69;59.75;95093.88;1714101;83;21512;-54
2021/12/22 03:13:50;;;;;;;217.15;78.28;;;;;;;-13.59;59.57;95098.46;1714185;83;21961;-53
2021/12/22 03:16:18;;;;;;;209.10;75.60;;;;;;;-13.52;59.42;95100.74;1714056;83;21448;-54
2021/12/22 03:18:45;;;;;;;208.60;77.27;;;;;;;-13.52;59.46;95110.00;1683601;83;21020;-54
2021/12/22 03:21:19;;;;;;;250.65;92.45;;;;;;;-13.58;59.31;95101.91;1745255;82;21033;-54
2021/12/22 03:23:40;;;;;;;244.93;90.40;;;;;;;-13.73;59.37;95107.98;1746940;82;21013;-54
2021/12/22 03:26:07;;;;;;;272.17;99.17;;;;;;;-13.80;59.70;95107.53;1748315;82;21055;-52
2021/12/22 03:28:34;;;;;;;332.30;119.42;;;;;;;-13.90;59.51;95099.77;1747780;82;20963;-53
2021/12/22 03:31:02;;;;;;;305.25;113.25;;;;;;;-14.06;59.51;95100.50;1740690;81;21474;-54
2021/12/22 03:33:28;;;;;;;239.88;88.65;;;;;;;-14.13;59.50;95103.25;1740277;82;21061;-52
2021/12/22 03:35:58;;;;;;;253.52;94.50;;;;;;;-14.31;59.45;95108.81;1740420;82;21070;-55
2021/12/22 03:38:25;;;;;;;239.90;88.65;;;;;;;-14.44;59.71;95102.90;1740671;82;21128;-53
2021/12/22 03:40:52;;;;;;;234.05;86.08;;;;;;;-14.46;60.20;95109.00;1715436;82;21062;-53
2021/12/22 03:43:19;;;;;;;208.80;80.03;;;;;;;-14.38;60.45;95104.42;1727836;81;21030;-53
2021/12/22 03:45:46;;;;;;;238.35;86.72;;;;;;;-14.24;60.72;95103.19;1727661;83;20982;-53
2021/12/22 03:48:17;;;;;;;256.07;94.07;;;;;;;-14.11;60.61;95105.09;1710045;81;21017;-54
2021/12/22 03:50:43;;;;;;;255.45;89.07;;;;;;;-13.89;60.53;95102.11;1757750;81;21975;-53
2021/12/22 03:53:10;;;;;;;245.10;89.40;;;;;;;-13.74;60.08;95103.77;1755633;81;21002;-53
2021/12/22 03:55:39;;;;;;;244.85;90.42;;;;;;;-13.66;60.20;95102.02;1695305;83;21011;-53
2021/12/22 03:58:07;;;;;;;234.83;89.67;;;;;;;-13.58;59.71;95097.42;1722233;83;21015;-55
2021/12/22 04:00:37;;;;;;;208.07;80.12;;;;;;;-13.52;59.35;95110.00;1695764;83;21585;-55
2021/12/22 04:03:04;;;;;;;219.75;85.85;;;;;;;-13.66;58.43;95105.98;1722082;83;21453;-54
2021/12/22 04:05:32;;;;;;;216.45;76.90;;;;;;;-13.83;58.15;95112.08;1695329;81;21099;-54
2021/12/22 04:07:59;;;;;;;145.87;62.93;;;;;;;-13.85;58.79;95111.58;1721681;83;21066;-54
2021/12/22 04:10:26;;;;;;;182.95;68.62;;;;;;;-13.77;58.84;95115.69;1721752;83;21428;-53
2021/12/22 04:12:55;;;;;;;179.25;72.87;;;;;;;-13.77;58.73;95120.97;1721661;83;21059;-53
2021/12/22 04:15:24;;;;;;;165.62;60.08;;;;;;;-13.91;58.56;95117.47;1721899;83;21136;-54
2021/12/22 04:17:53;;;;;;;129.15;50.58;;;;;;;-14.21;58.44;95122.42;1729295;81;20949;-53
2021/12/22 04:20:19;;;;;;;178.80;67.30;;;;;;;-14.48;58.68;95130.17;1756423;81;21509;-53
2021/12/22 04:22:48;;;;;;;189.45;72.80;;;;;;;-14.81;58.79;95129.76;1752177;82;20966;-53
2021/12/22 04:25:22;;;;;;;189.70;67.92;;;;;;;-15.04;59.42;95133.17;1752439;82;20946;-54
2021/12/22 04:27:48;;;;;;;151.43;58.20;;;;;;;-15.11;59.90;95129.54;1752395;82;21127;-54
2021/12/22 04:30:19;;;;;;;159.72;60.95;;;;;;;-15.06;60.42;95134.76;1739834;81;20948;-55
2021/12/22 04:32:46;;;;;;;113.17;44.18;;;;;;;-15.04;60.54;95130.53;1716422;83;21419;-54
2021/12/22 04:35:13;;;;;;;97.27;40.95;;;;;;;-14.94;61.07;95131.73;1716181;83;21040;-55
2021/12/22 04:37:40;;;;;;;115.10;48.98;;;;;;;-14.78;61.05;95141.06;1716303;83;21539;-53
2021/12/22 04:40:09;;;;;;;139.82;56.70;;;;;;;-14.63;60.89;95139.59;1716279;83;21887;-56
2021/12/22 04:42:35;;;;;;;160.55;63.83;;;;;;;-14.45;60.93;95140.17;1716010;82;21527;-54
2021/12/22 04:45:07;;;;;;;173.17;65.17;;;;;;;-14.38;60.40;95137.95;1687989;83;21071;-55
2021/12/22 04:47:35;;;;;;;176.93;71.53;;;;;;;-14.41;60.27;95143.81;1716439;82;20973;-54
2021/12/22 04:50:09;;;;;;;146.95;49.53;;;;;;;-14.45;60.44;95150.73;1716357;83;20985;-54
2021/12/22 04:52:41;;;;;;;252.05;89.15;;;;;;;-14.45;59.94;95149.41;1715749;83;21170;-54
2021/12/22 04:55:04;;;;;;;218.48;87.20;;;;;;;-14.69;59.26;95149.92;1715285;82;21060;-54
2021/12/22 04:57:34;;;;;;;214.27;81.28;;;;;;;-14.96;59.55;95156.30;1716914;83;21044;-53
2021/12/22 05:00:03;;;;;;;202.82;80.53;;;;;;;-15.08;59.69;95150.59;1716778;83;21648;-55
2021/12/22 05:02:32;;;;;;;200.40;76.70;;;;;;;-15.17;60.01;95152.28;1716950;83;21023;-54
2021/12/22 05:04:58;;;;;;;184.93;75.42;;;;;;;-15.19;60.39;95157.81;1716297;83;21167;-54
2021/12/22 05:07:26;;;;;;;176.18;72.30;;;;;;;-15.20;60.70;95162.84;1728652;82;21054;-55
2021/12/22 05:09:53;;;;;;;164.05;66.42;;;;;;;-15.14;60.81;95160.95;1734815;82;20994;-53
2021/12/22 05:12:25;;;;;;;177.82;71.20;;;;;;;-15.13;60.64;95153.29;1735131;82;21062;-53
2021/12/22 05:14:52;;;;;;;;;;;;;;;-15.16;60.59;95148.58;1737453;82;21058;-53
2021/12/22 05:17:38;;;;;;;211.07;82.00;;;;;;;-15.23;60.62;95156.01;1734744;82;21197;-53
2021/12/22 05:19:51;;;;;;;260.20;98.22;;;;;;;-15.22;61.02;95155.74;1715578;82;21103;-54
2021/12/22 05:22:18;;;;;;;258.52;93.70;;;;;;;-15.12;61.11;95156.98;1714474;83;21457;-54
2021/12/22 05:24:45;;;;;;;234.15;88.97;;;;;;;-14.98;61.52;95153.16;1714475;83;20973;-53
2021/12/22 05:27:17;;;;;;;231.63;91.87;;;;;;;-14.70;61.33;95162.87;1714450;83;21012;-55
2021/12/22 05:29:44;;;;;;;215.77;87.67;;;;;;;-14.53;60.52;95157.93;1714747;83;21414;-56
2021/12/22 05:32:10;;;;;;;255.77;100.95;;;;;;;-14.40;59.94;95154.63;1732149;82;21046;-57
2021/12/22 05:34:37;;;;;;;256.30;100.90;;;;;;;-14.32;59.48;95151.34;1735051;82;21046;-57
2021/12/22 05:37:04;;;;;;;251.07;103.22;;;;;;;-14.25;59.24;95155.20;1735245;82;21419;-58
2021/12/22 05:39:31;;;;;;;303.20;114.67;;;;;;;-14.23;58.95;95147.02;1735105;82;21002;-52
2021/12/22 05:41:59;;;;;;;281.32;111.52;;;;;;;-14.13;58.72;95153.44;1735015;82;21138;-53
2021/12/22 05:44:28;;;;;;;278.52;112.68;;;;;;;-14.05;58.38;95151.50;1734871;82;20963;-54
2021/12/22 05:46:54;;;;;;;315.10;122.72;;;;;;;-13.97;58.47;95145.05;1734612;82;21490;-54
2021/12/22 05:49:24;;;;;;;267.07;106.50;;;;;;;-13.81;58.18;95150.38;1738874;82;21503;-53
2021/12/22 05:51:50;;;;;;;297.45;121.45;;;;;;;-13.71;57.30;95149.69;1740017;82;21019;-56
2021/12/22 05:54:17;;;;;;;344.13;142.43;;;;;;;-13.63;57.14;95156.20;1739449;82;21147;-54
2021/12/22 05:56:44;;;;;;;255.75;102.27;;;;;;;-13.53;56.79;95156.83;1688138;83;20965;-54
2021/12/22 05:59:11;;;;;;;196.43;76.28;;;;;;;-13.53;56.68;95156.83;1716264;83;21016;-54
2021/12/22 06:01:37;;;;;;;248.78;93.35;;;;;;;-13.81;56.14;95151.70;1687848;83;21561;-52
2021/12/22 06:04:07;;;;;;;212.30;83.40;;;;;;;-14.21;56.54;95155.44;1688096;83;20968;-55
2021/12/22 06:06:34;;;;;;;274.70;106.07;;;;;;;-14.40;56.93;95161.22;1717322;82;21158;-55
2021/12/22 06:09:00;;;;;;;270.00;103.32;;;;;;;-14.58;57.38;95160.63;1734827;82;20993;-54
2021/12/22 06:11:29;;;;;;;252.38;101.90;;;;;;;-14.62;57.47;95167.00;1708457;82;21090;-55
2021/12/22 06:13:59;;;;;;;303.75;125.25;;;;;;;-14.68;57.56;95170.77;1734904;82;21407;-54
2021/12/22 06:16:27;;;;;;;288.05;120.55;;;;;;;-14.80;58.03;95173.55;1734823;82;20967;-55
2021/12/22 06:18:58;;;;;;;273.15;110.97;;;;;;;-14.76;58.59;95173.23;1705764;82;21138;-57
2021/12/22 06:21:24;;;;;;;325.80;130.20;;;;;;;-14.69;58.79;95177.64;1705900;83;21011;-57
2021/12/22 06:23:51;;;;;;;287.10;120.45;;;;;;;-14.70;58.89;95182.15;1690083;85;21515;-56
2021/12/22 06:26:18;;;;;;;296.10;122.13;;;;;;;-14.77;58.83;95187.50;1700756;82;21033;-55
2021/12/22 06:28:45;;;;;;;286.50;120.15;;;;;;;-14.87;58.93;95188.38;1725850;82;21116;-55
2021/12/22 06:31:18;;;;;;;290.87;121.35;;;;;;;-14.95;59.13;95192.16;1733765;82;21130;-55
2021/12/22 06:33:45;;;;;;;299.25;127.92;;;;;;;-15.03;59.31;95195.41;1702556;82;20982;-56
2021/12/22 06:36:14;;;;;;;286.73;124.35;;;;;;;-15.12;59.48;95204.97;1694976;83;21494;-56
2021/12/22 06:38:40;;;;;;;325.60;140.82;;;;;;;-15.21;59.70;95202.14;1735300;81;21057;-54
2021/12/22 06:41:07;;;;;;;346.85;148.57;;;;;;;-15.22;60.10;95208.48;1728726;81;21090;-58
2021/12/22 06:43:34;;;;;;;471.50;200.55;;;;;;;-15.13;60.34;95209.99;1733131;81;21048;-57
2021/12/22 06:46:01;;;;;;;381.70;167.03;;;;;;;-15.09;60.25;95205.73;1676870;83;21892;-54
2021/12/22 06:48:33;;;;;;;378.75;167.00;;;;;;;-15.13;60.40;95203.40;1694940;82;21448;-53
2021/12/22 06:50:59;;;;;;;450.45;203.22;;;;;;;-15.09;60.50;95212.33;1718134;82;21058;-56
2021/12/22 06:53:26;;;;;;;383.75;166.85;;;;;;;-15.11;60.41;95209.19;1731078;81;21407;-56
2021/12/22 06:55:53;;;;;;;318.35;140.80;;;;;;;-15.21;60.35;95202.69;1687764;82;21233;-58
2021/12/22 06:58:21;;;;;;;341.93;147.28;;;;;;;-15.29;60.75;95207.25;1727225;81;21046;-55
2021/12/22 07:00:50;;;;;;;331.63;135.68;;;;;;;-15.22;60.96;95211.67;1679546;83;21034;-53
2021/12/22 07:03:16;;;;;;;347.45;136.47;;;;;;;-15.11;60.96;95209.19;1728488;81;21441;-54
2021/12/22 07:05:43;;;;;;;386.18;148.05;;;;;;;-15.03;60.97;95215.20;1701197;82;21387;-54
2021/12/22 07:08:11;;;;;;;534.00;194.72;;;;;;;-15.02;61.30;95210.17;1723580;81;21103;-58
2021/12/22 07:10:40;;;;;;;427.85;163.45;;;;;;;-14.95;61.65;95222.50;1714753;81;21045;-57
2021/12/22 07:13:09;;;;;;;357.57;139.12;;;;;;;-14.72;62.17;95210.67;1714114;81;21135;-53
2021/12/22 07:15:37;;;;;;;335.15;138.25;;;;;;;-14.42;61.94;95212.20;1671215;81;21049;-59
2021/12/22 07:18:03;;;;;;;350.95;145.77;;;;;;;-14.21;61.60;95212.23;1696013;81;21022;-54
2021/12/22 07:20:30;;;;;;;310.77;138.60;;;;;;;-13.98;61.91;95207.42;1698275;82;21155;-57
2021/12/22 07:22:57;;;;;;;324.00;139.95;;;;;;;-13.67;61.79;95219.98;1696770;82;21053;-56
2021/12/22 07:25:25;;;;;;;388.52;171.35;;;;;;;-13.50;61.68;95217.08;1695068;83;21022;-56
2021/12/22 07:27:52;;;;;;;329.80;150.70;;;;;;;-13.44;61.53;95205.89;1719318;82;22225;-56
2021/12/22 07:30:23;;;;;;;404.90;182.70;;;;;;;-13.35;61.44;95208.92;1705303;82;21056;-57
2021/12/22 07:32:50;;;;;;;430.57;186.97;;;;;;;-13.19;61.38;95216.08;1721695;82;21141;-55
2021/12/22 07:35:25;;;;;;;490.43;238.80;;;;;;;-13.00;61.13;95205.73;1715901;82;21025;-53
2021/12/22 07:38:28;;;;;;;404.48;181.57;;;;;;;-12.96;61.07;95210.69;1724016;82;21051;-56
2021/12/22 07:40:58;;;;;;;352.52;148.65;;;;;;;-12.86;60.85;95206.50;1722290;82;21006;-57
2021/12/22 07:43:30;;;;;;;326.35;141.15;;;;;;;-12.73;60.55;95205.76;1723766;81;21040;-53
2021/12/22 07:45:57;;;;;;;398.68;179.78;;;;;;;-12.61;60.00;95208.73;1731026;82;21468;-55
2021/12/22 07:48:26;;;;;;;396.10;181.82;;;;;;;-12.47;60.19;95209.55;1693648;82;21063;-53
2021/12/22 07:50:55;;;;;;;382.83;166.37;;;;;;;-12.39;60.16;95215.48;1717441;82;21560;-57
2021/12/22 07:53:23;;;;;;;434.35;203.45;;;;;;;-12.35;60.04;95209.84;1716911;83;21062;-55
2021/12/22 07:55:53;;;;;;;401.43;185.75;;;;;;;-12.31;59.81;95204.19;1726132;82;20967;-53
2021/12/22 07:58:22;;;;;;;411.88;192.57;;;;;;;-12.09;60.09;95204.31;1715024;82;21230;-56
2021/12/22 08:00:49;;;;;;;394.25;178.42;;;;;;;-11.89;60.31;95205.23;1722890;82;21068;-54
2021/12/22 08:03:21;;;;;;;374.07;175.18;;;;;;;-11.52;60.68;95207.61;1716384;82;21119;-55
2021/12/22 08:05:48;;;;;;;381.68;173.10;;;;;;;-11.22;60.57;95218.86;1710590;82;22224;-55
2021/12/22 08:08:17;;;;;;;332.55;146.30;;;;;;;-10.97;60.29;95214.31;1696214;82;21151;-53
2021/12/22 08:10:49;;;;;;;190.43;90.62;;;;;;;-10.73;60.18;95216.12;1718637;82;21155;-53
2021/12/22 08:13:17;;;;;;;403.35;184.25;;;;;;;-10.45;59.65;95213.56;1711259;81;21093;-56
2021/12/22 08:15:44;;;;;;;291.73;126.82;;;;;;;-10.16;59.31;95222.63;1716261;82;21030;-52
2021/12/22 08:18:14;;;;;;;401.63;192.62;;;;;;;-9.87;59.01;95213.02;1728535;82;21115;-55
2021/12/22 08:20:41;;;;;;;425.00;196.72;;;;;;;-9.77;58.59;95218.03;1718521;82;21104;-54
2021/12/22 08:23:08;;;;;;;394.82;179.15;;;;;;;-9.60;58.69;95211.44;1661947;83;21551;-55
2021/12/22 08:25:35;;;;;;;381.00;172.87;;;;;;;-9.38;58.40;95214.54;1718425;82;21041;-54
2021/12/22 08:28:06;;;;;;;305.75;143.52;;;;;;;-9.20;58.17;95216.93;1717141;82;21135;-54
2021/12/22 08:30:35;;;;;;;372.17;174.65;;;;;;;-9.08;57.97;95214.98;1712433;81;21113;-54
2021/12/22 08:33:09;;;;;;;281.32;129.55;;;;;;;-8.99;57.80;95217.88;1714890;81;21026;-53
2021/12/22 08:38:50;;;;;;;124.95;61.33;;;;;;;-8.92;57.53;95218.75;1688282;82;21904;-57
2021/12/22 08:40:52;;;;;;;169.43;77.47;;;;;;;-8.47;56.60;95206.84;1697166;81;21052;-52
2021/12/22 08:43:19;;;;;;;147.85;71.70;;;;;;;-8.23;56.48;95209.00;1720374;81;21022;-53
2021/12/22 08:45:47;;;;;;;242.20;114.77;;;;;;;-8.11;55.92;95211.77;1724140;81;21069;-55
2021/12/22 08:48:17;;;;;;;226.52;111.88;;;;;;;-8.12;55.76;95213.64;1717307;81;21069;-56
2021/12/22 08:50:44;;;;;;;254.13;126.47;;;;;;;-8.12;55.83;95218.18;1714229;82;22031;-54
2021/12/22 08:53:11;;;;;;;306.30;145.85;;;;;;;-8.15;56.08;95220.16;1698339;83;21097;-53
2021/12/22 08:55:40;;;;;;;288.73;140.75;;;;;;;-8.08;56.55;95221.80;1718025;81;21049;-53
2021/12/22 08:58:10;;;;;;;203.60;99.62;;;;;;;-7.98;56.59;95227.57;1714274;82;21025;-55
2021/12/22 09:00:38;;;;;;;185.75;92.17;;;;;;;-7.78;55.86;95212.72;1690926;82;22261;-55
2021/12/22 09:03:05;;;;;;;232.37;112.32;;;;;;;-7.60;55.54;95211.00;1716373;83;21100;-54
2021/12/22 09:05:32;;;;;;;263.52;121.95;;;;;;;-7.49;54.89;95212.75;1715019;82;21128;-59
2021/12/22 09:07:58;;;;;;;230.95;110.65;;;;;;;-7.44;54.97;95209.89;1719077;81;21041;-56
2021/12/22 09:10:26;;;;;;;228.42;109.65;;;;;;;-7.29;55.06;95205.33;1718249;82;21107;-58
2021/12/22 09:12:54;;;;;;;201.18;105.95;;;;;;;-7.20;54.89;95212.72;1683665;85;21923;-55
2021/12/22 09:15:22;;;;;;;243.82;122.72;;;;;;;-7.14;55.01;95207.44;1715703;83;21319;-56
2021/12/22 09:17:48;;;;;;;132.97;64.42;;;;;;;-7.13;55.13;95207.66;1723492;82;21385;-57
2021/12/22 09:20:18;;;;;;;105.12;53.00;;;;;;;-6.97;54.66;95205.98;1719089;81;21115;-55
2021/12/22 09:22:48;;;;;;;136.95;69.40;;;;;;;-6.90;54.08;95202.44;1722933;81;21127;-53
2021/12/22 09:25:17;;;;;;;159.50;77.03;;;;;;;-6.83;53.48;95197.38;1741960;82;21152;-57
2021/12/22 09:27:46;;;;;;;148.80;72.90;;;;;;;-6.76;54.33;95202.97;1712432;82;21033;-57
2021/12/22 09:30:13;;;;;;;163.00;80.90;;;;;;;-6.56;54.45;95203.50;1737433;81;21089;-57
2021/12/22 09:32:40;;;;;;;195.87;92.00;;;;;;;-6.33;53.64;95195.90;1741161;82;21146;-55
2021/12/22 09:35:08;;;;;;;192.70;92.53;;;;;;;-6.17;53.73;95187.47;1723067;82;21060;-55
2021/12/22 09:37:35;;;;;;;165.00;79.10;;;;;;;-5.99;53.71;95181.58;1729636;82;21151;-57
2021/12/22 09:40:04;;;;;;;195.85;98.35;;;;;;;-5.86;52.71;95181.83;1728149;82;21002;-55
2021/12/22 09:42:33;;;;;;;314.45;126.45;;;;;;;-5.87;52.80;95182.95;1728620;82;21144;-55
2021/12/22 09:45:02;;;;;;;199.87;93.12;;;;;;;-5.70;53.32;95177.90;1730911;81;21122;-55
2021/12/22 09:47:37;;;;;;;187.15;91.32;;;;;;;-5.40;53.39;95177.33;1729936;82;21047;-54
2021/12/22 09:50:07;;;;;;;181.00;88.70;;;;;;;-5.35;52.98;95174.99;1734327;81;21145;-60
2021/12/22 09:52:27;;;;;;;163.22;84.60;;;;;;;-5.37;53.36;95178.03;1750515;81;21053;-52
2021/12/22 09:54:59;;;;;;;138.80;69.42;;;;;;;-5.22;53.18;95173.30;1721100;82;21033;-57
2021/12/22 09:57:26;;;;;;;164.47;80.40;;;;;;;-5.14;52.57;95169.73;1731779;81;21088;-55
2021/12/22 09:59:55;;;;;;;171.43;82.88;;;;;;;-5.13;52.82;95169.95;1723739;82;21556;-57
2021/12/22 10:02:30;;;;;;;156.75;76.87;;;;;;;-4.99;52.73;95171.14;1715173;82;21169;-57
2021/12/22 10:04:57;;;;;;;179.25;87.40;;;;;;;-4.87;52.82;95167.64;1728495;82;20948;-56
2021/12/22 10:07:27;;;;;;;165.35;82.50;;;;;;;-4.75;52.65;95163.02;1730712;82;22236;-55
2021/12/22 10:10:03;;;;;;;135.50;71.00;;;;;;;-4.61;52.46;95163.99;1712697;82;21041;-56
2021/12/22 10:12:33;;;;;;;135.45;67.87;;;;;;;-4.54;52.82;95168.20;1738254;81;21105;-57
2021/12/22 10:15:03;;;;;;;128.80;68.72;;;;;;;-4.51;52.34;95171.00;1732590;81;21220;-58
2021/12/22 10:17:33;;;;;;;125.45;63.95;;;;;;;-4.58;52.45;95161.39;1730574;81;21058;-59
2021/12/22 10:20:04;;;;;;;129.60;68.72;;;;;;;-4.59;52.83;95165.77;1713152;82;20979;-58
2021/12/22 10:22:35;;;;;;;124.22;68.45;;;;;;;-4.48;52.69;95168.17;1720071;81;21511;-58
2021/12/22 10:25:15;;;;;;;124.47;66.28;;;;;;;-4.44;52.46;95171.17;1704302;83;21502;-59
2021/12/22 10:28:06;;;;;;;130.43;70.03;;;;;;;-4.41;52.76;95164.36;1700028;83;21134;-58
2021/12/22 10:30:43;;;;;;;111.65;58.55;;;;;;;-4.31;52.17;95164.64;1708690;82;21010;-58
2021/12/22 10:33:20;;;;;;;132.97;70.15;;;;;;;-4.16;51.95;95167.13;1706998;82;21053;-58
2021/12/22 10:35:50;;;;;;;131.67;66.62;;;;;;;-4.08;51.87;95163.52;1661921;85;21042;-58
2021/12/22 10:38:21;;;;;;;145.95;75.57;;;;;;;-4.01;51.84;95163.14;1704250;82;21325;-58
2021/12/22 10:40:51;;;;;;;147.82;76.85;;;;;;;-3.98;51.88;95167.03;1689124;83;21226;-57
2021/12/22 10:43:25;;;;;;;139.47;75.55;;;;;;;-3.81;52.23;95170.73;1655665;83;21537;-57
2021/12/22 10:45:56;;;;;;;123.45;65.65;;;;;;;-3.61;51.46;95169.69;1701378;82;21032;-57
2021/12/22 10:51:31;;;;;;;162.35;84.80;;;;;;;-3.72;51.42;95159.27;1706977;83;21200;-58
2021/12/22 10:54:00;;;;;;;196.32;91.87;;;;;;;-3.76;51.81;95149.76;1708525;83;21336;-56
2021/12/22 10:56:35;;;;;;;155.75;79.03;;;;;;;-3.62;51.70;95154.14;1706787;82;21003;-56
2021/12/22 10:59:19;;;;;;;169.68;84.55;;;;;;;-3.57;51.53;95149.05;1696386;83;21438;-55
2021/12/22 11:01:59;;;;;;;176.72;94.55;;;;;;;-3.52;51.45;95143.42;1703181;84;21105;-55
2021/12/22 11:04:31;;;;;;;150.30;77.80;;;;;;;-3.51;51.88;95139.82;1683902;82;21457;-56
2021/12/22 11:07:23;;;;;;;151.32;81.72;;;;;;;-3.27;51.34;95140.95;1680074;82;21898;-56
2021/12/22 11:09:45;;;;;;;212.30;121.40;;;;;;;-3.17;51.39;95140.42;1706594;82;21450;-57
2021/12/22 11:12:14;;;;;;;190.85;106.45;;;;;;;-3.24;51.89;95140.24;1706260;82;21039;-57
2021/12/22 11:14:42;;;;;;;189.13;103.70;;;;;;;-3.08;51.94;95134.27;1708044;82;21097;-59
2021/12/22 11:17:15;;;;;;;137.43;77.62;;;;;;;-2.96;51.80;95135.50;1717631;82;21044;-56
2021/12/22 11:19:58;;;;;;;;;;;;;;;-2.81;51.36;95127.94;1709043;82;21185;-57
2021/12/22 11:22:53;;;;;;;164.65;88.20;;;;;;;-2.71;51.21;95129.29;1715029;81;20193;-56
2021/12/22 11:25:17;;;;;;;179.53;91.65;;;;;;;-2.56;50.50;95125.17;1729380;82;21018;-56
2021/12/22 11:27:44;;;;;;;192.87;102.80;;;;;;;-2.52;50.16;95131.40;1732857;82;21014;-55
2021/12/22 11:30:12;;;;;;;145.43;80.80;;;;;;;-2.54;50.73;95130.98;1730164;82;21071;-56
2021/12/22 11:32:39;;;;;;;145.68;80.25;;;;;;;-2.38;50.09;95133.58;1723811;82;21892;-56